sensor_id;sensor_type;location;lat;lon;timestamp;P1;durP1;ratioP1;P2;durP2;ratioP2
75297;SDS011;63896;45.990;18.688;2023-02-28T00:00:13;18.27;;;8.80;;
75297;SDS011;63896;45.990;18.688;2023-02-28T00:03:16;18.23;;;8.45;;
75297;SDS011;63896;45.990;18.688;2023-02-28T00:06:20;18.88;;;8.48;;
75297;SDS011;63896;45.990;18.688;2023-02-28T00:09:23;21.30;;;9.33;;
75297;SDS011;63896;45.990;18.688;2023-02-28T00:12:26;22.37;;;10.03;;
75297;SDS011;63896;45.990;18.688;2023-02-28T00:15:29;23.90;;;10.27;;
75297;SDS011;63896;45.990;18.688;2023-02-28T00:18:32;22.48;;;9.77;;
75297;SDS011;63896;45.990;18.688;2023-02-28T00:21:35;19.98;;;9.50;;
75297;SDS011;63896;45.990;18.688;2023-02-28T00:24:38;19.63;;;8.60;;
75297;SDS011;63896;45.990;18.688;2023-02-28T00:27:41;17.00;;;6.90;;
75297;SDS011;63896;45.990;18.688;2023-02-28T00:30:45;14.35;;;6.63;;
75297;SDS011;63896;45.990;18.688;2023-02-28T00:33:48;18.27;;;7.22;;
75297;SDS011;63896;45.990;18.688;2023-02-28T00:36:51;15.32;;;7.00;;
75297;SDS011;63896;45.990;18.688;2023-02-28T00:39:54;20.13;;;8.63;;
75297;SDS011;63896;45.990;18.688;2023-02-28T00:42:57;16.20;;;7.07;;
75297;SDS011;63896;45.990;18.688;2023-02-28T00:46:00;19.17;;;7.57;;
75297;SDS011;63896;45.990;18.688;2023-02-28T00:49:05;19.38;;;8.02;;
75297;SDS011;63896;45.990;18.688;2023-02-28T00:52:07;14.35;;;6.70;;
75297;SDS011;63896;45.990;18.688;2023-02-28T00:55:10;15.80;;;7.60;;
75297;SDS011;63896;45.990;18.688;2023-02-28T00:58:13;17.80;;;8.30;;
75297;SDS011;63896;45.990;18.688;2023-02-28T01:01:16;17.25;;;7.78;;
75297;SDS011;63896;45.990;18.688;2023-02-28T01:04:19;14.52;;;7.07;;
75297;SDS011;63896;45.990;18.688;2023-02-28T01:07:22;16.73;;;7.07;;
75297;SDS011;63896;45.990;18.688;2023-02-28T01:10:26;18.70;;;7.73;;
75297;SDS011;63896;45.990;18.688;2023-02-28T01:13:33;20.40;;;7.90;;
75297;SDS011;63896;45.990;18.688;2023-02-28T01:16:36;17.33;;;7.38;;
75297;SDS011;63896;45.990;18.688;2023-02-28T01:19:39;15.85;;;7.57;;
75297;SDS011;63896;45.990;18.688;2023-02-28T01:22:42;17.20;;;7.80;;
75297;SDS011;63896;45.990;18.688;2023-02-28T01:25:45;18.23;;;8.57;;
75297;SDS011;63896;45.990;18.688;2023-02-28T01:28:48;17.60;;;8.03;;
75297;SDS011;63896;45.990;18.688;2023-02-28T01:31:53;17.02;;;7.68;;
75297;SDS011;63896;45.990;18.688;2023-02-28T01:34:56;17.73;;;8.43;;
75297;SDS011;63896;45.990;18.688;2023-02-28T01:37:59;19.98;;;8.13;;
75297;SDS011;63896;45.990;18.688;2023-02-28T01:41:19;17.43;;;7.87;;
75297;SDS011;63896;45.990;18.688;2023-02-28T01:48:05;18.88;;;8.52;;
75297;SDS011;63896;45.990;18.688;2023-02-28T01:51:12;21.45;;;9.10;;
75297;SDS011;63896;45.990;18.688;2023-02-28T01:54:20;17.92;;;9.07;;
75297;SDS011;63896;45.990;18.688;2023-02-28T01:57:29;19.80;;;8.57;;
75297;SDS011;63896;45.990;18.688;2023-02-28T02:00:40;18.97;;;8.77;;
75297;SDS011;63896;45.990;18.688;2023-02-28T02:03:45;21.75;;;9.90;;
75297;SDS011;63896;45.990;18.688;2023-02-28T02:06:48;20.48;;;9.60;;
75297;SDS011;63896;45.990;18.688;2023-02-28T02:10:00;21.55;;;10.52;;
75297;SDS011;63896;45.990;18.688;2023-02-28T02:29:41;20.83;;;9.10;;
75297;SDS011;63896;45.990;18.688;2023-02-28T02:36:33;19.30;;;9.25;;
75297;SDS011;63896;45.990;18.688;2023-02-28T02:39:46;27.80;;;9.30;;
75297;SDS011;63896;45.990;18.688;2023-02-28T02:42:52;18.67;;;8.25;;
75297;SDS011;63896;45.990;18.688;2023-02-28T02:46:00;21.37;;;8.93;;
75297;SDS011;63896;45.990;18.688;2023-02-28T02:49:09;21.87;;;8.57;;
75297;SDS011;63896;45.990;18.688;2023-02-28T02:52:16;19.35;;;8.43;;
75297;SDS011;63896;45.990;18.688;2023-02-28T02:55:23;19.20;;;7.40;;
75297;SDS011;63896;45.990;18.688;2023-02-28T02:58:28;15.27;;;6.55;;
75297;SDS011;63896;45.990;18.688;2023-02-28T03:01:35;19.40;;;7.53;;
75297;SDS011;63896;45.990;18.688;2023-02-28T03:04:53;16.97;;;7.77;;
75297;SDS011;63896;45.990;18.688;2023-02-28T03:08:04;17.17;;;7.45;;
75297;SDS011;63896;45.990;18.688;2023-02-28T03:11:11;15.80;;;6.78;;
75297;SDS011;63896;45.990;18.688;2023-02-28T03:18:01;17.60;;;8.20;;
75297;SDS011;63896;45.990;18.688;2023-02-28T03:24:37;16.85;;;7.10;;
75297;SDS011;63896;45.990;18.688;2023-02-28T03:31:38;18.10;;;7.68;;
75297;SDS011;63896;45.990;18.688;2023-02-28T03:35:31;18.67;;;7.37;;
75297;SDS011;63896;45.990;18.688;2023-02-28T03:38:15;19.50;;;7.20;;
75297;SDS011;63896;45.990;18.688;2023-02-28T03:41:24;16.10;;;7.97;;
75297;SDS011;63896;45.990;18.688;2023-02-28T03:44:34;16.23;;;7.10;;
75297;SDS011;63896;45.990;18.688;2023-02-28T03:47:46;12.38;;;5.80;;
75297;SDS011;63896;45.990;18.688;2023-02-28T03:50:55;15.83;;;6.90;;
75297;SDS011;63896;45.990;18.688;2023-02-28T03:54:02;16.00;;;6.17;;
75297;SDS011;63896;45.990;18.688;2023-02-28T04:00:45;16.85;;;6.53;;
75297;SDS011;63896;45.990;18.688;2023-02-28T04:03:52;13.23;;;5.65;;
75297;SDS011;63896;45.990;18.688;2023-02-28T04:07:07;13.80;;;6.13;;
75297;SDS011;63896;45.990;18.688;2023-02-28T04:10:11;14.00;;;6.17;;
75297;SDS011;63896;45.990;18.688;2023-02-28T04:13:17;12.77;;;5.97;;
75297;SDS011;63896;45.990;18.688;2023-02-28T04:16:20;13.93;;;6.30;;
75297;SDS011;63896;45.990;18.688;2023-02-28T04:19:36;18.30;;;6.45;;
75297;SDS011;63896;45.990;18.688;2023-02-28T04:22:39;13.47;;;5.77;;
75297;SDS011;63896;45.990;18.688;2023-02-28T04:25:42;12.27;;;5.67;;
75297;SDS011;63896;45.990;18.688;2023-02-28T04:28:44;13.18;;;5.72;;
75297;SDS011;63896;45.990;18.688;2023-02-28T04:31:47;12.95;;;6.15;;
75297;SDS011;63896;45.990;18.688;2023-02-28T04:34:50;13.02;;;6.38;;
75297;SDS011;63896;45.990;18.688;2023-02-28T04:37:53;13.23;;;6.47;;
75297;SDS011;63896;45.990;18.688;2023-02-28T04:40:56;13.93;;;6.10;;
75297;SDS011;63896;45.990;18.688;2023-02-28T04:44:01;12.15;;;5.90;;
75297;SDS011;63896;45.990;18.688;2023-02-28T04:47:03;13.30;;;6.22;;
75297;SDS011;63896;45.990;18.688;2023-02-28T04:50:07;13.57;;;6.13;;
75297;SDS011;63896;45.990;18.688;2023-02-28T04:53:12;11.93;;;5.17;;
75297;SDS011;63896;45.990;18.688;2023-02-28T04:56:15;13.80;;;6.40;;
75297;SDS011;63896;45.990;18.688;2023-02-28T04:59:19;13.25;;;6.38;;
75297;SDS011;63896;45.990;18.688;2023-02-28T05:02:23;14.20;;;5.63;;
75297;SDS011;63896;45.990;18.688;2023-02-28T05:05:26;11.82;;;5.35;;
75297;SDS011;63896;45.990;18.688;2023-02-28T05:08:29;11.80;;;5.80;;
75297;SDS011;63896;45.990;18.688;2023-02-28T05:11:33;12.43;;;5.90;;
75297;SDS011;63896;45.990;18.688;2023-02-28T05:14:37;11.95;;;5.60;;
75297;SDS011;63896;45.990;18.688;2023-02-28T05:17:40;13.18;;;5.95;;
75297;SDS011;63896;45.990;18.688;2023-02-28T05:20:44;16.98;;;5.88;;
75297;SDS011;63896;45.990;18.688;2023-02-28T05:23:47;8.27;;;4.03;;
75297;SDS011;63896;45.990;18.688;2023-02-28T05:26:50;14.63;;;5.60;;
75297;SDS011;63896;45.990;18.688;2023-02-28T05:29:55;11.25;;;5.45;;
75297;SDS011;63896;45.990;18.688;2023-02-28T05:32:58;13.50;;;6.38;;
75297;SDS011;63896;45.990;18.688;2023-02-28T05:36:01;14.27;;;6.05;;
75297;SDS011;63896;45.990;18.688;2023-02-28T05:39:05;14.93;;;6.57;;
75297;SDS011;63896;45.990;18.688;2023-02-28T05:42:15;14.83;;;6.33;;
75297;SDS011;63896;45.990;18.688;2023-02-28T05:45:18;12.65;;;6.32;;
75297;SDS011;63896;45.990;18.688;2023-02-28T05:48:21;15.68;;;6.25;;
75297;SDS011;63896;45.990;18.688;2023-02-28T05:51:24;12.80;;;6.53;;
75297;SDS011;63896;45.990;18.688;2023-02-28T05:54:27;13.53;;;6.97;;
75297;SDS011;63896;45.990;18.688;2023-02-28T05:57:29;14.97;;;6.67;;
75297;SDS011;63896;45.990;18.688;2023-02-28T06:00:32;14.05;;;6.90;;
75297;SDS011;63896;45.990;18.688;2023-02-28T06:03:35;13.27;;;6.15;;
75297;SDS011;63896;45.990;18.688;2023-02-28T06:06:38;13.38;;;6.32;;
75297;SDS011;63896;45.990;18.688;2023-02-28T06:09:41;12.77;;;6.27;;
75297;SDS011;63896;45.990;18.688;2023-02-28T06:12:44;13.40;;;5.87;;
75297;SDS011;63896;45.990;18.688;2023-02-28T06:15:47;12.80;;;6.25;;
75297;SDS011;63896;45.990;18.688;2023-02-28T06:18:50;13.93;;;6.50;;
75297;SDS011;63896;45.990;18.688;2023-02-28T06:21:53;13.93;;;6.13;;
75297;SDS011;63896;45.990;18.688;2023-02-28T06:24:57;13.80;;;6.63;;
75297;SDS011;63896;45.990;18.688;2023-02-28T06:28:00;14.47;;;6.50;;
75297;SDS011;63896;45.990;18.688;2023-02-28T06:31:07;12.75;;;5.90;;
75297;SDS011;63896;45.990;18.688;2023-02-28T06:34:15;11.68;;;6.05;;
75297;SDS011;63896;45.990;18.688;2023-02-28T06:37:18;11.75;;;5.82;;
75297;SDS011;63896;45.990;18.688;2023-02-28T06:40:21;14.37;;;6.40;;
75297;SDS011;63896;45.990;18.688;2023-02-28T06:43:24;12.47;;;6.77;;
75297;SDS011;63896;45.990;18.688;2023-02-28T06:46:32;13.00;;;6.93;;
75297;SDS011;63896;45.990;18.688;2023-02-28T06:49:35;13.32;;;6.85;;
75297;SDS011;63896;45.990;18.688;2023-02-28T06:52:39;16.13;;;6.30;;
75297;SDS011;63896;45.990;18.688;2023-02-28T06:55:41;13.33;;;6.57;;
75297;SDS011;63896;45.990;18.688;2023-02-28T06:58:48;15.23;;;6.83;;
75297;SDS011;63896;45.990;18.688;2023-02-28T07:01:53;15.70;;;7.18;;
75297;SDS011;63896;45.990;18.688;2023-02-28T07:04:57;14.60;;;6.78;;
75297;SDS011;63896;45.990;18.688;2023-02-28T07:08:03;13.23;;;6.28;;
75297;SDS011;63896;45.990;18.688;2023-02-28T07:11:08;11.83;;;6.13;;
75297;SDS011;63896;45.990;18.688;2023-02-28T07:14:11;13.97;;;6.63;;
75297;SDS011;63896;45.990;18.688;2023-02-28T07:17:21;15.18;;;7.95;;
75297;SDS011;63896;45.990;18.688;2023-02-28T07:20:26;14.82;;;6.88;;
75297;SDS011;63896;45.990;18.688;2023-02-28T07:23:29;13.95;;;6.35;;
75297;SDS011;63896;45.990;18.688;2023-02-28T07:26:33;12.73;;;6.77;;
75297;SDS011;63896;45.990;18.688;2023-02-28T07:29:39;13.17;;;6.43;;
75297;SDS011;63896;45.990;18.688;2023-02-28T07:32:42;12.65;;;5.93;;
75297;SDS011;63896;45.990;18.688;2023-02-28T07:35:47;16.25;;;7.40;;
75297;SDS011;63896;45.990;18.688;2023-02-28T07:38:51;16.17;;;7.07;;
75297;SDS011;63896;45.990;18.688;2023-02-28T07:41:54;12.40;;;6.93;;
75297;SDS011;63896;45.990;18.688;2023-02-28T07:45:07;15.50;;;7.30;;
75297;SDS011;63896;45.990;18.688;2023-02-28T07:48:14;14.40;;;6.82;;
75297;SDS011;63896;45.990;18.688;2023-02-28T07:51:17;11.85;;;6.72;;
75297;SDS011;63896;45.990;18.688;2023-02-28T07:54:23;14.55;;;7.07;;
75297;SDS011;63896;45.990;18.688;2023-02-28T07:57:26;15.70;;;7.03;;
75297;SDS011;63896;45.990;18.688;2023-02-28T08:00:29;15.83;;;6.60;;
75297;SDS011;63896;45.990;18.688;2023-02-28T08:03:33;14.70;;;7.13;;
75297;SDS011;63896;45.990;18.688;2023-02-28T08:06:38;13.73;;;6.72;;
75297;SDS011;63896;45.990;18.688;2023-02-28T08:09:42;13.05;;;6.80;;
75297;SDS011;63896;45.990;18.688;2023-02-28T08:12:46;13.00;;;6.93;;
75297;SDS011;63896;45.990;18.688;2023-02-28T08:15:52;12.43;;;6.50;;
75297;SDS011;63896;45.990;18.688;2023-02-28T08:18:57;13.13;;;7.28;;
75297;SDS011;63896;45.990;18.688;2023-02-28T08:22:00;13.90;;;7.07;;
75297;SDS011;63896;45.990;18.688;2023-02-28T08:25:06;13.07;;;6.75;;
75297;SDS011;63896;45.990;18.688;2023-02-28T08:28:10;12.63;;;6.43;;
75297;SDS011;63896;45.990;18.688;2023-02-28T08:31:13;12.30;;;6.47;;
75297;SDS011;63896;45.990;18.688;2023-02-28T08:34:18;14.07;;;6.90;;
75297;SDS011;63896;45.990;18.688;2023-02-28T08:37:22;14.88;;;7.10;;
75297;SDS011;63896;45.990;18.688;2023-02-28T08:40:25;13.70;;;6.93;;
75297;SDS011;63896;45.990;18.688;2023-02-28T08:43:29;10.63;;;5.67;;
75297;SDS011;63896;45.990;18.688;2023-02-28T08:46:43;13.63;;;6.80;;
75297;SDS011;63896;45.990;18.688;2023-02-28T08:49:46;14.73;;;6.75;;
75297;SDS011;63896;45.990;18.688;2023-02-28T08:52:49;14.48;;;7.85;;
75297;SDS011;63896;45.990;18.688;2023-02-28T08:55:58;14.27;;;7.65;;
75297;SDS011;63896;45.990;18.688;2023-02-28T08:59:03;17.20;;;8.07;;
75297;SDS011;63896;45.990;18.688;2023-02-28T09:02:08;14.57;;;7.23;;
75297;SDS011;63896;45.990;18.688;2023-02-28T09:05:14;18.13;;;8.15;;
75297;SDS011;63896;45.990;18.688;2023-02-28T09:08:18;21.10;;;9.65;;
75297;SDS011;63896;45.990;18.688;2023-02-28T09:11:21;17.10;;;7.85;;
75297;SDS011;63896;45.990;18.688;2023-02-28T09:14:24;13.97;;;8.00;;
75297;SDS011;63896;45.990;18.688;2023-02-28T09:17:28;13.17;;;6.93;;
75297;SDS011;63896;45.990;18.688;2023-02-28T09:20:32;16.40;;;8.50;;
75297;SDS011;63896;45.990;18.688;2023-02-28T09:23:36;17.20;;;8.68;;
75297;SDS011;63896;45.990;18.688;2023-02-28T09:26:40;20.30;;;9.68;;
75297;SDS011;63896;45.990;18.688;2023-02-28T09:29:44;15.30;;;7.53;;
75297;SDS011;63896;45.990;18.688;2023-02-28T09:32:47;18.40;;;8.87;;
75297;SDS011;63896;45.990;18.688;2023-02-28T09:35:58;16.65;;;7.95;;
75297;SDS011;63896;45.990;18.688;2023-02-28T09:39:03;17.13;;;9.25;;
75297;SDS011;63896;45.990;18.688;2023-02-28T09:42:06;15.93;;;8.38;;
75297;SDS011;63896;45.990;18.688;2023-02-28T09:45:28;19.87;;;9.10;;
75297;SDS011;63896;45.990;18.688;2023-02-28T09:48:36;21.57;;;9.87;;
75297;SDS011;63896;45.990;18.688;2023-02-28T09:51:53;19.17;;;9.48;;
75297;SDS011;63896;45.990;18.688;2023-02-28T09:58:41;18.27;;;9.20;;
75297;SDS011;63896;45.990;18.688;2023-02-28T10:05:22;16.23;;;9.00;;
75297;SDS011;63896;45.990;18.688;2023-02-28T10:08:30;17.27;;;9.65;;
75297;SDS011;63896;45.990;18.688;2023-02-28T10:11:38;17.70;;;9.25;;
75297;SDS011;63896;45.990;18.688;2023-02-28T10:14:45;15.27;;;8.05;;
75297;SDS011;63896;45.990;18.688;2023-02-28T10:17:51;18.70;;;8.80;;
75297;SDS011;63896;45.990;18.688;2023-02-28T10:21:15;19.03;;;9.00;;
75297;SDS011;63896;45.990;18.688;2023-02-28T10:24:57;16.88;;;8.20;;
75297;SDS011;63896;45.990;18.688;2023-02-28T10:31:20;14.27;;;8.05;;
75297;SDS011;63896;45.990;18.688;2023-02-28T10:34:25;17.23;;;7.73;;
75297;SDS011;63896;45.990;18.688;2023-02-28T10:37:28;24.27;;;11.63;;
75297;SDS011;63896;45.990;18.688;2023-02-28T10:40:33;16.05;;;8.63;;
75297;SDS011;63896;45.990;18.688;2023-02-28T10:43:38;18.60;;;8.38;;
75297;SDS011;63896;45.990;18.688;2023-02-28T10:46:42;16.70;;;8.30;;
75297;SDS011;63896;45.990;18.688;2023-02-28T10:49:49;18.90;;;9.73;;
75297;SDS011;63896;45.990;18.688;2023-02-28T10:52:54;25.17;;;11.10;;
75297;SDS011;63896;45.990;18.688;2023-02-28T11:02:31;23.55;;;11.35;;
75297;SDS011;63896;45.990;18.688;2023-02-28T11:05:39;22.07;;;11.00;;
75297;SDS011;63896;45.990;18.688;2023-02-28T11:08:50;21.90;;;11.73;;
75297;SDS011;63896;45.990;18.688;2023-02-28T11:11:56;26.75;;;11.38;;
75297;SDS011;63896;45.990;18.688;2023-02-28T11:15:00;23.10;;;11.10;;
75297;SDS011;63896;45.990;18.688;2023-02-28T11:21:16;20.27;;;10.67;;
75297;SDS011;63896;45.990;18.688;2023-02-28T11:24:29;21.20;;;11.53;;
75297;SDS011;63896;45.990;18.688;2023-02-28T11:27:45;21.05;;;11.15;;
75297;SDS011;63896;45.990;18.688;2023-02-28T11:31:05;18.42;;;9.45;;
75297;SDS011;63896;45.990;18.688;2023-02-28T11:34:24;17.88;;;9.13;;
75297;SDS011;63896;45.990;18.688;2023-02-28T11:37:30;16.37;;;9.40;;
75297;SDS011;63896;45.990;18.688;2023-02-28T11:40:38;17.10;;;9.37;;
75297;SDS011;63896;45.990;18.688;2023-02-28T11:44:05;18.98;;;8.77;;
75297;SDS011;63896;45.990;18.688;2023-02-28T11:54:41;18.53;;;10.07;;
75297;SDS011;63896;45.990;18.688;2023-02-28T12:27:57;26.33;;;10.90;;
75297;SDS011;63896;45.990;18.688;2023-02-28T12:31:01;19.20;;;9.67;;
75297;SDS011;63896;45.990;18.688;2023-02-28T12:34:49;16.67;;;9.48;;
75297;SDS011;63896;45.990;18.688;2023-02-28T12:38:29;17.08;;;8.73;;
75297;SDS011;63896;45.990;18.688;2023-02-28T12:41:53;20.60;;;10.18;;
75297;SDS011;63896;45.990;18.688;2023-02-28T12:45:02;16.53;;;9.20;;
75297;SDS011;63896;45.990;18.688;2023-02-28T12:51:45;16.33;;;9.25;;
75297;SDS011;63896;45.990;18.688;2023-02-28T12:54:50;18.73;;;9.23;;
75297;SDS011;63896;45.990;18.688;2023-02-28T12:58:20;18.70;;;9.40;;
75297;SDS011;63896;45.990;18.688;2023-02-28T13:11:34;20.55;;;10.60;;
75297;SDS011;63896;45.990;18.688;2023-02-28T13:14:43;21.27;;;10.13;;
75297;SDS011;63896;45.990;18.688;2023-02-28T13:17:50;17.93;;;9.57;;
75297;SDS011;63896;45.990;18.688;2023-02-28T13:20:55;17.07;;;9.23;;
75297;SDS011;63896;45.990;18.688;2023-02-28T13:24:00;20.15;;;9.43;;
75297;SDS011;63896;45.990;18.688;2023-02-28T13:40:27;21.92;;;10.13;;
75297;SDS011;63896;45.990;18.688;2023-02-28T13:47:21;15.45;;;9.07;;
75297;SDS011;63896;45.990;18.688;2023-02-28T13:53:50;20.50;;;10.40;;
75297;SDS011;63896;45.990;18.688;2023-02-28T14:00:42;17.77;;;9.73;;
75297;SDS011;63896;45.990;18.688;2023-02-28T14:03:54;18.80;;;9.80;;
75297;SDS011;63896;45.990;18.688;2023-02-28T14:07:01;22.40;;;10.90;;
75297;SDS011;63896;45.990;18.688;2023-02-28T14:10:06;15.97;;;9.53;;
75297;SDS011;63896;45.990;18.688;2023-02-28T14:13:13;19.52;;;9.63;;
75297;SDS011;63896;45.990;18.688;2023-02-28T14:16:40;27.83;;;13.10;;
75297;SDS011;63896;45.990;18.688;2023-02-28T14:19:47;26.08;;;11.93;;
75297;SDS011;63896;45.990;18.688;2023-02-28T14:22:54;26.97;;;11.40;;
75297;SDS011;63896;45.990;18.688;2023-02-28T14:32:47;19.50;;;9.70;;
75297;SDS011;63896;45.990;18.688;2023-02-28T14:36:21;21.45;;;11.07;;
75297;SDS011;63896;45.990;18.688;2023-02-28T14:39:28;19.47;;;9.90;;
75297;SDS011;63896;45.990;18.688;2023-02-28T14:42:37;20.53;;;10.13;;
75297;SDS011;63896;45.990;18.688;2023-02-28T14:45:44;20.33;;;11.15;;
75297;SDS011;63896;45.990;18.688;2023-02-28T14:48:54;19.95;;;10.85;;
75297;SDS011;63896;45.990;18.688;2023-02-28T14:52:05;19.98;;;10.50;;
75297;SDS011;63896;45.990;18.688;2023-02-28T14:55:13;20.27;;;9.90;;
75297;SDS011;63896;45.990;18.688;2023-02-28T15:01:32;21.38;;;11.13;;
75297;SDS011;63896;45.990;18.688;2023-02-28T15:04:35;19.33;;;9.63;;
75297;SDS011;63896;45.990;18.688;2023-02-28T15:07:39;18.10;;;9.93;;
75297;SDS011;63896;45.990;18.688;2023-02-28T15:10:43;17.30;;;10.07;;
75297;SDS011;63896;45.990;18.688;2023-02-28T15:13:49;19.77;;;10.93;;
75297;SDS011;63896;45.990;18.688;2023-02-28T15:16:58;18.00;;;9.70;;
75297;SDS011;63896;45.990;18.688;2023-02-28T15:20:05;20.58;;;10.70;;
75297;SDS011;63896;45.990;18.688;2023-02-28T15:23:10;16.48;;;9.63;;
75297;SDS011;63896;45.990;18.688;2023-02-28T15:26:15;18.93;;;9.60;;
75297;SDS011;63896;45.990;18.688;2023-02-28T15:29:22;17.60;;;10.03;;
75297;SDS011;63896;45.990;18.688;2023-02-28T15:32:36;18.95;;;10.35;;
75297;SDS011;63896;45.990;18.688;2023-02-28T15:35:42;17.08;;;9.55;;
75297;SDS011;63896;45.990;18.688;2023-02-28T15:38:46;26.50;;;10.85;;
75297;SDS011;63896;45.990;18.688;2023-02-28T15:42:12;22.13;;;11.10;;
75297;SDS011;63896;45.990;18.688;2023-02-28T15:45:34;20.63;;;10.27;;
75297;SDS011;63896;45.990;18.688;2023-02-28T15:48:53;18.05;;;9.73;;
75297;SDS011;63896;45.990;18.688;2023-02-28T15:51:59;17.27;;;9.40;;
75297;SDS011;63896;45.990;18.688;2023-02-28T15:55:17;20.00;;;10.10;;
75297;SDS011;63896;45.990;18.688;2023-02-28T15:58:23;16.63;;;9.20;;
75297;SDS011;63896;45.990;18.688;2023-02-28T16:01:27;18.33;;;9.93;;
75297;SDS011;63896;45.990;18.688;2023-02-28T16:04:32;18.70;;;9.80;;
75297;SDS011;63896;45.990;18.688;2023-02-28T16:07:36;20.70;;;9.95;;
75297;SDS011;63896;45.990;18.688;2023-02-28T16:10:41;20.67;;;11.35;;
75297;SDS011;63896;45.990;18.688;2023-02-28T16:13:44;22.30;;;11.00;;
75297;SDS011;63896;45.990;18.688;2023-02-28T16:16:51;21.17;;;10.67;;
75297;SDS011;63896;45.990;18.688;2023-02-28T16:19:55;22.90;;;12.15;;
75297;SDS011;63896;45.990;18.688;2023-02-28T16:22:58;23.55;;;11.27;;
75297;SDS011;63896;45.990;18.688;2023-02-28T16:26:05;22.85;;;11.23;;
75297;SDS011;63896;45.990;18.688;2023-02-28T16:29:09;22.07;;;11.83;;
75297;SDS011;63896;45.990;18.688;2023-02-28T16:32:17;23.83;;;11.43;;
75297;SDS011;63896;45.990;18.688;2023-02-28T16:35:21;20.40;;;11.05;;
75297;SDS011;63896;45.990;18.688;2023-02-28T16:38:24;22.00;;;11.40;;
75297;SDS011;63896;45.990;18.688;2023-02-28T16:41:28;23.15;;;11.40;;
75297;SDS011;63896;45.990;18.688;2023-02-28T16:44:32;25.47;;;11.43;;
75297;SDS011;63896;45.990;18.688;2023-02-28T16:47:37;22.93;;;11.83;;
75297;SDS011;63896;45.990;18.688;2023-02-28T16:50:40;22.88;;;11.77;;
75297;SDS011;63896;45.990;18.688;2023-02-28T16:53:43;27.23;;;12.65;;
75297;SDS011;63896;45.990;18.688;2023-02-28T16:56:47;22.00;;;10.65;;
75297;SDS011;63896;45.990;18.688;2023-02-28T16:59:51;25.27;;;12.50;;
75297;SDS011;63896;45.990;18.688;2023-02-28T17:02:54;23.77;;;12.37;;
75297;SDS011;63896;45.990;18.688;2023-02-28T17:05:58;22.85;;;10.88;;
75297;SDS011;63896;45.990;18.688;2023-02-28T17:09:00;21.88;;;10.65;;
75297;SDS011;63896;45.990;18.688;2023-02-28T17:12:03;21.40;;;10.10;;
75297;SDS011;63896;45.990;18.688;2023-02-28T17:15:06;27.20;;;10.83;;
75297;SDS011;63896;45.990;18.688;2023-02-28T17:18:15;20.53;;;10.57;;
75297;SDS011;63896;45.990;18.688;2023-02-28T17:21:23;21.20;;;10.75;;
75297;SDS011;63896;45.990;18.688;2023-02-28T17:24:26;19.65;;;9.85;;
75297;SDS011;63896;45.990;18.688;2023-02-28T17:27:32;20.42;;;9.40;;
75297;SDS011;63896;45.990;18.688;2023-02-28T17:30:35;20.90;;;9.97;;
75297;SDS011;63896;45.990;18.688;2023-02-28T17:33:38;20.47;;;9.50;;
75297;SDS011;63896;45.990;18.688;2023-02-28T17:36:41;19.38;;;9.20;;
75297;SDS011;63896;45.990;18.688;2023-02-28T17:39:44;21.42;;;9.27;;
75297;SDS011;63896;45.990;18.688;2023-02-28T17:42:47;20.65;;;10.13;;
75297;SDS011;63896;45.990;18.688;2023-02-28T17:45:50;19.47;;;9.20;;
75297;SDS011;63896;45.990;18.688;2023-02-28T17:48:55;22.20;;;10.77;;
75297;SDS011;63896;45.990;18.688;2023-02-28T17:51:58;21.98;;;10.75;;
75297;SDS011;63896;45.990;18.688;2023-02-28T17:55:03;24.27;;;10.18;;
75297;SDS011;63896;45.990;18.688;2023-02-28T17:58:08;20.38;;;10.73;;
75297;SDS011;63896;45.990;18.688;2023-02-28T18:01:14;22.20;;;10.50;;
75297;SDS011;63896;45.990;18.688;2023-02-28T18:04:19;25.33;;;11.83;;
75297;SDS011;63896;45.990;18.688;2023-02-28T18:07:24;25.23;;;12.50;;
75297;SDS011;63896;45.990;18.688;2023-02-28T18:10:28;21.13;;;10.95;;
75297;SDS011;63896;45.990;18.688;2023-02-28T18:13:36;26.65;;;11.30;;
75297;SDS011;63896;45.990;18.688;2023-02-28T18:16:39;20.63;;;10.80;;
75297;SDS011;63896;45.990;18.688;2023-02-28T18:19:42;26.33;;;11.23;;
75297;SDS011;63896;45.990;18.688;2023-02-28T18:22:45;27.17;;;11.45;;
75297;SDS011;63896;45.990;18.688;2023-02-28T18:25:49;22.33;;;11.77;;
75297;SDS011;63896;45.990;18.688;2023-02-28T18:28:52;23.90;;;12.43;;
75297;SDS011;63896;45.990;18.688;2023-02-28T18:31:56;25.47;;;12.23;;
75297;SDS011;63896;45.990;18.688;2023-02-28T18:34:59;23.73;;;12.00;;
75297;SDS011;63896;45.990;18.688;2023-02-28T18:38:06;26.73;;;12.35;;
75297;SDS011;63896;45.990;18.688;2023-02-28T18:41:12;26.95;;;13.02;;
75297;SDS011;63896;45.990;18.688;2023-02-28T18:44:16;31.25;;;13.55;;
75297;SDS011;63896;45.990;18.688;2023-02-28T18:47:22;28.90;;;13.13;;
75297;SDS011;63896;45.990;18.688;2023-02-28T18:50:27;32.43;;;14.07;;
75297;SDS011;63896;45.990;18.688;2023-02-28T18:53:31;26.25;;;12.55;;
75297;SDS011;63896;45.990;18.688;2023-02-28T18:56:36;28.00;;;12.07;;
75297;SDS011;63896;45.990;18.688;2023-02-28T18:59:40;29.02;;;13.15;;
75297;SDS011;63896;45.990;18.688;2023-02-28T19:02:43;31.63;;;13.80;;
75297;SDS011;63896;45.990;18.688;2023-02-28T19:05:46;33.53;;;14.30;;
75297;SDS011;63896;45.990;18.688;2023-02-28T19:08:52;32.45;;;13.60;;
75297;SDS011;63896;45.990;18.688;2023-02-28T19:11:56;30.02;;;13.80;;
75297;SDS011;63896;45.990;18.688;2023-02-28T19:14:59;35.17;;;14.55;;
75297;SDS011;63896;45.990;18.688;2023-02-28T19:18:03;29.70;;;13.87;;
75297;SDS011;63896;45.990;18.688;2023-02-28T19:21:06;31.87;;;14.60;;
75297;SDS011;63896;45.990;18.688;2023-02-28T19:24:12;30.20;;;14.45;;
75297;SDS011;63896;45.990;18.688;2023-02-28T19:27:14;35.25;;;14.13;;
75297;SDS011;63896;45.990;18.688;2023-02-28T19:30:19;28.30;;;13.63;;
75297;SDS011;63896;45.990;18.688;2023-02-28T19:33:24;31.27;;;14.73;;
75297;SDS011;63896;45.990;18.688;2023-02-28T19:36:27;33.20;;;12.70;;
75297;SDS011;63896;45.990;18.688;2023-02-28T19:39:30;32.53;;;14.43;;
75297;SDS011;63896;45.990;18.688;2023-02-28T19:42:42;29.35;;;13.45;;
75297;SDS011;63896;45.990;18.688;2023-02-28T19:45:45;29.48;;;13.23;;
75297;SDS011;63896;45.990;18.688;2023-02-28T19:48:51;34.83;;;13.50;;
75297;SDS011;63896;45.990;18.688;2023-02-28T19:51:55;28.87;;;12.97;;
75297;SDS011;63896;45.990;18.688;2023-02-28T19:54:58;32.83;;;12.70;;
75297;SDS011;63896;45.990;18.688;2023-02-28T19:58:02;30.58;;;14.20;;
75297;SDS011;63896;45.990;18.688;2023-02-28T20:01:06;31.38;;;13.75;;
75297;SDS011;63896;45.990;18.688;2023-02-28T20:04:18;38.70;;;14.53;;
75297;SDS011;63896;45.990;18.688;2023-02-28T20:07:21;31.63;;;13.60;;
75297;SDS011;63896;45.990;18.688;2023-02-28T20:10:26;29.10;;;12.48;;
75297;SDS011;63896;45.990;18.688;2023-02-28T20:13:29;34.40;;;14.75;;
75297;SDS011;63896;45.990;18.688;2023-02-28T20:16:32;38.35;;;14.40;;
75297;SDS011;63896;45.990;18.688;2023-02-28T20:19:36;33.97;;;14.60;;
75297;SDS011;63896;45.990;18.688;2023-02-28T20:22:39;36.17;;;13.57;;
75297;SDS011;63896;45.990;18.688;2023-02-28T20:25:42;35.90;;;14.32;;
75297;SDS011;63896;45.990;18.688;2023-02-28T20:28:45;34.70;;;14.23;;